sensor_id;sensor_type;location;lat;lon;timestamp;P1;durP1;ratioP1;P2;durP2;ratioP2
15451;SDS011;7827;53.594;9.938;2023-07-20T00:01:52;0.60;;;0.60;;
15451;SDS011;7827;53.594;9.938;2023-07-20T00:04:21;0.60;;;0.60;;
15451;SDS011;7827;53.594;9.938;2023-07-20T00:06:50;0.60;;;0.60;;
15451;SDS011;7827;53.594;9.938;2023-07-20T00:09:18;0.60;;;0.60;;
15451;SDS011;7827;53.594;9.938;2023-07-20T00:11:48;0.60;;;0.60;;
15451;SDS011;7827;53.594;9.938;2023-07-20T00:14:18;0.60;;;0.60;;
15451;SDS011;7827;53.594;9.938;2023-07-20T00:16:50;0.60;;;0.60;;
15451;SDS011;7827;53.594;9.938;2023-07-20T00:19:23;0.55;;;0.55;;
15451;SDS011;7827;53.594;9.938;2023-07-20T00:21:52;0.60;;;0.60;;
15451;SDS011;7827;53.594;9.938;2023-07-20T00:24:21;0.60;;;0.60;;
15451;SDS011;7827;53.594;9.938;2023-07-20T00:26:49;0.60;;;0.60;;
15451;SDS011;7827;53.594;9.938;2023-07-20T00:29:18;0.55;;;0.55;;
15451;SDS011;7827;53.594;9.938;2023-07-20T00:31:46;0.60;;;0.60;;
15451;SDS011;7827;53.594;9.938;2023-07-20T00:34:19;0.60;;;0.60;;
15451;SDS011;7827;53.594;9.938;2023-07-20T00:36:47;0.60;;;0.60;;
15451;SDS011;7827;53.594;9.938;2023-07-20T00:39:16;0.60;;;0.60;;
15451;SDS011;7827;53.594;9.938;2023-07-20T00:41:44;0.50;;;0.50;;
15451;SDS011;7827;53.594;9.938;2023-07-20T00:44:13;0.60;;;0.60;;
15451;SDS011;7827;53.594;9.938;2023-07-20T00:46:41;0.60;;;0.60;;
15451;SDS011;7827;53.594;9.938;2023-07-20T00:49:10;0.50;;;0.50;;
15451;SDS011;7827;53.594;9.938;2023-07-20T00:51:40;0.60;;;0.60;;
15451;SDS011;7827;53.594;9.938;2023-07-20T00:54:09;0.50;;;0.50;;
15451;SDS011;7827;53.594;9.938;2023-07-20T00:56:37;0.52;;;0.52;;
15451;SDS011;7827;53.594;9.938;2023-07-20T00:59:07;0.50;;;0.50;;
15451;SDS011;7827;53.594;9.938;2023-07-20T01:01:35;0.60;;;0.60;;
15451;SDS011;7827;53.594;9.938;2023-07-20T01:04:04;0.60;;;0.60;;
15451;SDS011;7827;53.594;9.938;2023-07-20T01:06:35;0.60;;;0.60;;
15451;SDS011;7827;53.594;9.938;2023-07-20T01:09:16;0.60;;;0.60;;
15451;SDS011;7827;53.594;9.938;2023-07-20T01:11:52;0.60;;;0.60;;
15451;SDS011;7827;53.594;9.938;2023-07-20T01:14:31;0.60;;;0.60;;
15451;SDS011;7827;53.594;9.938;2023-07-20T01:17:01;0.60;;;0.60;;
15451;SDS011;7827;53.594;9.938;2023-07-20T01:19:30;0.60;;;0.60;;
15451;SDS011;7827;53.594;9.938;2023-07-20T01:22:02;0.60;;;0.60;;
15451;SDS011;7827;53.594;9.938;2023-07-20T01:24:42;0.60;;;0.60;;
15451;SDS011;7827;53.594;9.938;2023-07-20T01:30:52;0.60;;;0.60;;
15451;SDS011;7827;53.594;9.938;2023-07-20T01:33:30;0.60;;;0.60;;
15451;SDS011;7827;53.594;9.938;2023-07-20T01:36:01;0.60;;;0.60;;
15451;SDS011;7827;53.594;9.938;2023-07-20T01:38:32;0.60;;;0.60;;
15451;SDS011;7827;53.594;9.938;2023-07-20T01:41:00;0.60;;;0.60;;
15451;SDS011;7827;53.594;9.938;2023-07-20T01:43:30;0.60;;;0.60;;
15451;SDS011;7827;53.594;9.938;2023-07-20T01:45:58;0.60;;;0.60;;
15451;SDS011;7827;53.594;9.938;2023-07-20T01:48:27;0.60;;;0.60;;
15451;SDS011;7827;53.594;9.938;2023-07-20T01:50:56;0.60;;;0.60;;
15451;SDS011;7827;53.594;9.938;2023-07-20T01:53:25;0.60;;;0.60;;
15451;SDS011;7827;53.594;9.938;2023-07-20T01:55:53;0.60;;;0.60;;
15451;SDS011;7827;53.594;9.938;2023-07-20T01:58:22;0.60;;;0.60;;
15451;SDS011;7827;53.594;9.938;2023-07-20T02:00:51;0.60;;;0.60;;
15451;SDS011;7827;53.594;9.938;2023-07-20T02:03:19;0.60;;;0.60;;
15451;SDS011;7827;53.594;9.938;2023-07-20T02:05:50;0.60;;;0.60;;
15451;SDS011;7827;53.594;9.938;2023-07-20T02:08:20;0.60;;;0.60;;
15451;SDS011;7827;53.594;9.938;2023-07-20T02:10:48;0.60;;;0.60;;
15451;SDS011;7827;53.594;9.938;2023-07-20T02:13:18;0.50;;;0.50;;
15451;SDS011;7827;53.594;9.938;2023-07-20T02:15:47;0.60;;;0.60;;
15451;SDS011;7827;53.594;9.938;2023-07-20T02:18:17;0.60;;;0.60;;
15451;SDS011;7827;53.594;9.938;2023-07-20T02:20:45;0.60;;;0.60;;
15451;SDS011;7827;53.594;9.938;2023-07-20T02:23:14;0.60;;;0.60;;
15451;SDS011;7827;53.594;9.938;2023-07-20T02:25:44;0.60;;;0.60;;
15451;SDS011;7827;53.594;9.938;2023-07-20T02:28:13;0.60;;;0.60;;
15451;SDS011;7827;53.594;9.938;2023-07-20T02:30:42;0.60;;;0.60;;
15451;SDS011;7827;53.594;9.938;2023-07-20T02:33:11;0.60;;;0.60;;
15451;SDS011;7827;53.594;9.938;2023-07-20T02:35:40;0.60;;;0.60;;
15451;SDS011;7827;53.594;9.938;2023-07-20T02:38:08;0.60;;;0.60;;
15451;SDS011;7827;53.594;9.938;2023-07-20T02:40:36;0.60;;;0.60;;
15451;SDS011;7827;53.594;9.938;2023-07-20T02:43:06;0.60;;;0.60;;
15451;SDS011;7827;53.594;9.938;2023-07-20T02:45:35;0.60;;;0.60;;
15451;SDS011;7827;53.594;9.938;2023-07-20T02:48:09;0.60;;;0.60;;
15451;SDS011;7827;53.594;9.938;2023-07-20T02:50:37;0.60;;;0.60;;
15451;SDS011;7827;53.594;9.938;2023-07-20T02:53:05;0.50;;;0.50;;
15451;SDS011;7827;53.594;9.938;2023-07-20T02:55:34;0.60;;;0.60;;
15451;SDS011;7827;53.594;9.938;2023-07-20T02:58:02;0.60;;;0.60;;
15451;SDS011;7827;53.594;9.938;2023-07-20T03:00:32;0.60;;;0.60;;
15451;SDS011;7827;53.594;9.938;2023-07-20T03:03:00;0.50;;;0.50;;
15451;SDS011;7827;53.594;9.938;2023-07-20T03:05:29;0.40;;;0.40;;
15451;SDS011;7827;53.594;9.938;2023-07-20T03:07:57;0.60;;;0.60;;
15451;SDS011;7827;53.594;9.938;2023-07-20T03:10:29;0.50;;;0.50;;
15451;SDS011;7827;53.594;9.938;2023-07-20T03:12:57;0.50;;;0.50;;
15451;SDS011;7827;53.594;9.938;2023-07-20T03:15:26;0.60;;;0.60;;
15451;SDS011;7827;53.594;9.938;2023-07-20T03:17:57;0.60;;;0.60;;
15451;SDS011;7827;53.594;9.938;2023-07-20T03:20:27;0.60;;;0.60;;
15451;SDS011;7827;53.594;9.938;2023-07-20T03:22:56;0.60;;;0.60;;
15451;SDS011;7827;53.594;9.938;2023-07-20T03:25:24;0.60;;;0.60;;
15451;SDS011;7827;53.594;9.938;2023-07-20T03:27:54;0.60;;;0.60;;
15451;SDS011;7827;53.594;9.938;2023-07-20T03:30:23;0.60;;;0.60;;
15451;SDS011;7827;53.594;9.938;2023-07-20T03:32:52;0.60;;;0.60;;
15451;SDS011;7827;53.594;9.938;2023-07-20T03:35:22;0.52;;;0.52;;
15451;SDS011;7827;53.594;9.938;2023-07-20T03:37:50;0.60;;;0.60;;
15451;SDS011;7827;53.594;9.938;2023-07-20T03:40:18;0.65;;;0.65;;
15451;SDS011;7827;53.594;9.938;2023-07-20T03:42:46;0.60;;;0.60;;
15451;SDS011;7827;53.594;9.938;2023-07-20T03:45:15;0.60;;;0.60;;
15451;SDS011;7827;53.594;9.938;2023-07-20T03:47:43;0.60;;;0.60;;
15451;SDS011;7827;53.594;9.938;2023-07-20T03:50:14;0.60;;;0.60;;
15451;SDS011;7827;53.594;9.938;2023-07-20T03:52:44;0.60;;;0.60;;
15451;SDS011;7827;53.594;9.938;2023-07-20T03:55:13;0.60;;;0.60;;
15451;SDS011;7827;53.594;9.938;2023-07-20T03:57:41;0.60;;;0.60;;
15451;SDS011;7827;53.594;9.938;2023-07-20T04:00:10;0.60;;;0.60;;
15451;SDS011;7827;53.594;9.938;2023-07-20T04:02:41;0.60;;;0.60;;
15451;SDS011;7827;53.594;9.938;2023-07-20T04:05:09;0.60;;;0.60;;
15451;SDS011;7827;53.594;9.938;2023-07-20T04:07:38;0.60;;;0.60;;
15451;SDS011;7827;53.594;9.938;2023-07-20T04:10:08;0.60;;;0.60;;
15451;SDS011;7827;53.594;9.938;2023-07-20T04:12:37;0.60;;;0.60;;
15451;SDS011;7827;53.594;9.938;2023-07-20T04:15:06;0.60;;;0.60;;
15451;SDS011;7827;53.594;9.938;2023-07-20T04:17:35;0.60;;;0.60;;
15451;SDS011;7827;53.594;9.938;2023-07-20T04:20:04;0.60;;;0.60;;
15451;SDS011;7827;53.594;9.938;2023-07-20T04:22:34;0.60;;;0.60;;
15451;SDS011;7827;53.594;9.938;2023-07-20T04:25:05;0.60;;;0.60;;
15451;SDS011;7827;53.594;9.938;2023-07-20T04:27:36;0.60;;;0.60;;
15451;SDS011;7827;53.594;9.938;2023-07-20T04:30:06;0.57;;;0.57;;
15451;SDS011;7827;53.594;9.938;2023-07-20T04:32:36;0.50;;;0.50;;
15451;SDS011;7827;53.594;9.938;2023-07-20T04:35:17;0.60;;;0.60;;
15451;SDS011;7827;53.594;9.938;2023-07-20T04:38:19;0.50;;;0.50;;
15451;SDS011;7827;53.594;9.938;2023-07-20T04:40:57;0.57;;;0.57;;
15451;SDS011;7827;53.594;9.938;2023-07-20T04:43:26;0.50;;;0.50;;
15451;SDS011;7827;53.594;9.938;2023-07-20T04:45:57;0.60;;;0.60;;
15451;SDS011;7827;53.594;9.938;2023-07-20T04:48:25;0.50;;;0.50;;
15451;SDS011;7827;53.594;9.938;2023-07-20T04:50:55;0.50;;;0.50;;
15451;SDS011;7827;53.594;9.938;2023-07-20T04:53:24;0.43;;;0.43;;
15451;SDS011;7827;53.594;9.938;2023-07-20T04:55:53;0.50;;;0.50;;
15451;SDS011;7827;53.594;9.938;2023-07-20T04:58:24;0.40;;;0.40;;
15451;SDS011;7827;53.594;9.938;2023-07-20T05:00:54;0.50;;;0.50;;
15451;SDS011;7827;53.594;9.938;2023-07-20T05:03:22;0.40;;;0.40;;
15451;SDS011;7827;53.594;9.938;2023-07-20T05:05:52;0.40;;;0.40;;
15451;SDS011;7827;53.594;9.938;2023-07-20T05:08:20;0.40;;;0.40;;
15451;SDS011;7827;53.594;9.938;2023-07-20T05:10:49;0.40;;;0.40;;
15451;SDS011;7827;53.594;9.938;2023-07-20T05:13:18;0.40;;;0.40;;
15451;SDS011;7827;53.594;9.938;2023-07-20T05:15:52;0.50;;;0.50;;
15451;SDS011;7827;53.594;9.938;2023-07-20T05:18:21;0.50;;;0.50;;
15451;SDS011;7827;53.594;9.938;2023-07-20T05:20:50;0.40;;;0.40;;
15451;SDS011;7827;53.594;9.938;2023-07-20T05:23:20;0.50;;;0.50;;
15451;SDS011;7827;53.594;9.938;2023-07-20T05:25:53;0.50;;;0.50;;
15451;SDS011;7827;53.594;9.938;2023-07-20T05:28:23;0.40;;;0.40;;
15451;SDS011;7827;53.594;9.938;2023-07-20T05:30:53;0.50;;;0.50;;
15451;SDS011;7827;53.594;9.938;2023-07-20T05:33:21;0.50;;;0.50;;
15451;SDS011;7827;53.594;9.938;2023-07-20T05:35:50;0.50;;;0.50;;
15451;SDS011;7827;53.594;9.938;2023-07-20T05:38:18;0.50;;;0.50;;
15451;SDS011;7827;53.594;9.938;2023-07-20T05:40:47;0.47;;;0.47;;
15451;SDS011;7827;53.594;9.938;2023-07-20T05:43:15;0.50;;;0.50;;
15451;SDS011;7827;53.594;9.938;2023-07-20T05:45:43;0.50;;;0.50;;
15451;SDS011;7827;53.594;9.938;2023-07-20T05:48:15;0.50;;;0.50;;
15451;SDS011;7827;53.594;9.938;2023-07-20T05:50:43;0.50;;;0.50;;
15451;SDS011;7827;53.594;9.938;2023-07-20T05:53:12;0.40;;;0.40;;
15451;SDS011;7827;53.594;9.938;2023-07-20T05:55:40;0.50;;;0.50;;
15451;SDS011;7827;53.594;9.938;2023-07-20T05:58:08;0.50;;;0.50;;
15451;SDS011;7827;53.594;9.938;2023-07-20T06:00:37;0.40;;;0.40;;
15451;SDS011;7827;53.594;9.938;2023-07-20T06:03:06;0.50;;;0.50;;
15451;SDS011;7827;53.594;9.938;2023-07-20T06:05:36;0.50;;;0.50;;
15451;SDS011;7827;53.594;9.938;2023-07-20T06:08:04;0.50;;;0.50;;
15451;SDS011;7827;53.594;9.938;2023-07-20T06:10:33;0.47;;;0.47;;
15451;SDS011;7827;53.594;9.938;2023-07-20T06:13:01;0.50;;;0.50;;
15451;SDS011;7827;53.594;9.938;2023-07-20T06:15:31;0.50;;;0.50;;
15451;SDS011;7827;53.594;9.938;2023-07-20T06:18:02;0.60;;;0.60;;
15451;SDS011;7827;53.594;9.938;2023-07-20T06:20:30;0.50;;;0.50;;
15451;SDS011;7827;53.594;9.938;2023-07-20T06:23:00;0.50;;;0.50;;
15451;SDS011;7827;53.594;9.938;2023-07-20T06:25:28;0.50;;;0.50;;
15451;SDS011;7827;53.594;9.938;2023-07-20T06:27:57;0.50;;;0.50;;
15451;SDS011;7827;53.594;9.938;2023-07-20T06:30:25;0.43;;;0.43;;
15451;SDS011;7827;53.594;9.938;2023-07-20T06:32:54;0.50;;;0.50;;
15451;SDS011;7827;53.594;9.938;2023-07-20T06:35:22;0.50;;;0.50;;
15451;SDS011;7827;53.594;9.938;2023-07-20T06:37:50;0.45;;;0.45;;
15451;SDS011;7827;53.594;9.938;2023-07-20T06:40:20;0.50;;;0.50;;
15451;SDS011;7827;53.594;9.938;2023-07-20T06:42:52;0.50;;;0.50;;
15451;SDS011;7827;53.594;9.938;2023-07-20T06:45:23;0.50;;;0.50;;
15451;SDS011;7827;53.594;9.938;2023-07-20T06:47:52;0.50;;;0.50;;
15451;SDS011;7827;53.594;9.938;2023-07-20T06:50:20;0.50;;;0.50;;
15451;SDS011;7827;53.594;9.938;2023-07-20T06:52:53;0.50;;;0.50;;
15451;SDS011;7827;53.594;9.938;2023-07-20T06:55:25;0.50;;;0.50;;
15451;SDS011;7827;53.594;9.938;2023-07-20T06:57:55;0.40;;;0.40;;
15451;SDS011;7827;53.594;9.938;2023-07-20T07:00:25;0.50;;;0.50;;
15451;SDS011;7827;53.594;9.938;2023-07-20T07:02:53;0.50;;;0.50;;
15451;SDS011;7827;53.594;9.938;2023-07-20T07:05:22;0.50;;;0.50;;
15451;SDS011;7827;53.594;9.938;2023-07-20T07:07:51;0.40;;;0.40;;
15451;SDS011;7827;53.594;9.938;2023-07-20T07:10:19;0.50;;;0.50;;
15451;SDS011;7827;53.594;9.938;2023-07-20T07:12:49;0.40;;;0.40;;
15451;SDS011;7827;53.594;9.938;2023-07-20T07:15:17;0.40;;;0.40;;
15451;SDS011;7827;53.594;9.938;2023-07-20T07:17:45;0.50;;;0.50;;
15451;SDS011;7827;53.594;9.938;2023-07-20T07:20:14;0.40;;;0.40;;
15451;SDS011;7827;53.594;9.938;2023-07-20T07:22:47;0.50;;;0.50;;
15451;SDS011;7827;53.594;9.938;2023-07-20T07:25:19;0.40;;;0.40;;
15451;SDS011;7827;53.594;9.938;2023-07-20T07:27:51;0.50;;;0.50;;
15451;SDS011;7827;53.594;9.938;2023-07-20T07:30:20;0.40;;;0.40;;
15451;SDS011;7827;53.594;9.938;2023-07-20T07:32:48;0.50;;;0.50;;
15451;SDS011;7827;53.594;9.938;2023-07-20T07:35:17;0.50;;;0.50;;
15451;SDS011;7827;53.594;9.938;2023-07-20T07:37:46;0.50;;;0.50;;
15451;SDS011;7827;53.594;9.938;2023-07-20T07:40:17;0.50;;;0.50;;
15451;SDS011;7827;53.594;9.938;2023-07-20T07:42:45;0.50;;;0.50;;
15451;SDS011;7827;53.594;9.938;2023-07-20T07:45:15;0.40;;;0.40;;
15451;SDS011;7827;53.594;9.938;2023-07-20T07:47:44;0.50;;;0.50;;
15451;SDS011;7827;53.594;9.938;2023-07-20T07:50:12;0.50;;;0.50;;
15451;SDS011;7827;53.594;9.938;2023-07-20T07:52:40;0.50;;;0.50;;
15451;SDS011;7827;53.594;9.938;2023-07-20T07:55:09;0.50;;;0.50;;
15451;SDS011;7827;53.594;9.938;2023-07-20T07:57:37;0.50;;;0.50;;
15451;SDS011;7827;53.594;9.938;2023-07-20T08:00:05;0.40;;;0.40;;
15451;SDS011;7827;53.594;9.938;2023-07-20T08:02:40;0.40;;;0.40;;
15451;SDS011;7827;53.594;9.938;2023-07-20T08:05:09;0.40;;;0.40;;
15451;SDS011;7827;53.594;9.938;2023-07-20T08:07:37;0.40;;;0.40;;
15451;SDS011;7827;53.594;9.938;2023-07-20T08:10:07;0.50;;;0.50;;
15451;SDS011;7827;53.594;9.938;2023-07-20T08:12:36;0.40;;;0.40;;
15451;SDS011;7827;53.594;9.938;2023-07-20T08:15:05;0.50;;;0.50;;
15451;SDS011;7827;53.594;9.938;2023-07-20T08:17:35;0.50;;;0.50;;
15451;SDS011;7827;53.594;9.938;2023-07-20T08:20:05;0.40;;;0.40;;
15451;SDS011;7827;53.594;9.938;2023-07-20T08:22:37;0.40;;;0.40;;
15451;SDS011;7827;53.594;9.938;2023-07-20T08:25:06;0.50;;;0.50;;
15451;SDS011;7827;53.594;9.938;2023-07-20T08:27:36;0.40;;;0.40;;
15451;SDS011;7827;53.594;9.938;2023-07-20T08:30:05;0.50;;;0.50;;
15451;SDS011;7827;53.594;9.938;2023-07-20T08:32:35;0.40;;;0.40;;
15451;SDS011;7827;53.594;9.938;2023-07-20T08:35:05;0.40;;;0.40;;
15451;SDS011;7827;53.594;9.938;2023-07-20T08:37:34;0.40;;;0.40;;
15451;SDS011;7827;53.594;9.938;2023-07-20T08:40:03;0.40;;;0.40;;
15451;SDS011;7827;53.594;9.938;2023-07-20T08:42:36;0.45;;;0.45;;
15451;SDS011;7827;53.594;9.938;2023-07-20T08:45:06;0.40;;;0.40;;
15451;SDS011;7827;53.594;9.938;2023-07-20T08:47:37;0.40;;;0.40;;
15451;SDS011;7827;53.594;9.938;2023-07-20T08:50:07;0.50;;;0.50;;
15451;SDS011;7827;53.594;9.938;2023-07-20T08:52:37;0.60;;;0.60;;
15451;SDS011;7827;53.594;9.938;2023-07-20T08:55:06;0.40;;;0.40;;
15451;SDS011;7827;53.594;9.938;2023-07-20T08:57:35;0.50;;;0.50;;
15451;SDS011;7827;53.594;9.938;2023-07-20T09:00:08;0.40;;;0.40;;
15451;SDS011;7827;53.594;9.938;2023-07-20T09:02:39;0.50;;;0.50;;
15451;SDS011;7827;53.594;9.938;2023-07-20T09:05:11;0.40;;;0.40;;
15451;SDS011;7827;53.594;9.938;2023-07-20T09:07:41;0.40;;;0.40;;
15451;SDS011;7827;53.594;9.938;2023-07-20T09:10:09;0.43;;;0.43;;
15451;SDS011;7827;53.594;9.938;2023-07-20T09:12:40;0.40;;;0.40;;
15451;SDS011;7827;53.594;9.938;2023-07-20T09:15:11;0.50;;;0.50;;
15451;SDS011;7827;53.594;9.938;2023-07-20T09:17:41;0.50;;;0.50;;
15451;SDS011;7827;53.594;9.938;2023-07-20T09:20:16;0.50;;;0.50;;
15451;SDS011;7827;53.594;9.938;2023-07-20T09:22:50;0.40;;;0.40;;
15451;SDS011;7827;53.594;9.938;2023-07-20T09:25:20;0.50;;;0.50;;
15451;SDS011;7827;53.594;9.938;2023-07-20T09:27:55;0.50;;;0.50;;
15451;SDS011;7827;53.594;9.938;2023-07-20T09:30:25;0.50;;;0.50;;
15451;SDS011;7827;53.594;9.938;2023-07-20T09:32:56;0.50;;;0.50;;
15451;SDS011;7827;53.594;9.938;2023-07-20T09:35:27;0.50;;;0.50;;
15451;SDS011;7827;53.594;9.938;2023-07-20T09:38:08;0.52;;;0.52;;
15451;SDS011;7827;53.594;9.938;2023-07-20T09:40:40;0.60;;;0.60;;
15451;SDS011;7827;53.594;9.938;2023-07-20T09:43:12;0.50;;;0.50;;
15451;SDS011;7827;53.594;9.938;2023-07-20T09:45:46;0.50;;;0.50;;
15451;SDS011;7827;53.594;9.938;2023-07-20T09:48:17;0.50;;;0.50;;
15451;SDS011;7827;53.594;9.938;2023-07-20T09:50:56;0.60;;;0.60;;
15451;SDS011;7827;53.594;9.938;2023-07-20T09:53:25;0.57;;;0.57;;
15451;SDS011;7827;53.594;9.938;2023-07-20T09:55:55;0.60;;;0.60;;
15451;SDS011;7827;53.594;9.938;2023-07-20T09:58:39;0.50;;;0.50;;
15451;SDS011;7827;53.594;9.938;2023-07-20T10:01:09;0.60;;;0.60;;
15451;SDS011;7827;53.594;9.938;2023-07-20T10:03:42;0.60;;;0.60;;
15451;SDS011;7827;53.594;9.938;2023-07-20T10:06:15;0.50;;;0.50;;
15451;SDS011;7827;53.594;9.938;2023-07-20T10:08:52;0.50;;;0.50;;
15451;SDS011;7827;53.594;9.938;2023-07-20T10:11:23;0.50;;;0.50;;
15451;SDS011;7827;53.594;9.938;2023-07-20T10:13:58;0.50;;;0.50;;
15451;SDS011;7827;53.594;9.938;2023-07-20T10:16:34;0.50;;;0.50;;
15451;SDS011;7827;53.594;9.938;2023-07-20T10:19:07;0.50;;;0.50;;
15451;SDS011;7827;53.594;9.938;2023-07-20T10:21:47;0.50;;;0.50;;
15451;SDS011;7827;53.594;9.938;2023-07-20T10:24:24;0.60;;;0.60;;
15451;SDS011;7827;53.594;9.938;2023-07-20T10:26:55;0.50;;;0.50;;
15451;SDS011;7827;53.594;9.938;2023-07-20T10:29:23;0.50;;;0.50;;
15451;SDS011;7827;53.594;9.938;2023-07-20T10:31:55;0.40;;;0.40;;
15451;SDS011;7827;53.594;9.938;2023-07-20T10:34:26;0.50;;;0.50;;
15451;SDS011;7827;53.594;9.938;2023-07-20T10:37:03;0.50;;;0.50;;
15451;SDS011;7827;53.594;9.938;2023-07-20T10:39:35;0.40;;;0.40;;
15451;SDS011;7827;53.594;9.938;2023-07-20T10:42:06;0.50;;;0.50;;
15451;SDS011;7827;53.594;9.938;2023-07-20T10:44:36;0.40;;;0.40;;
15451;SDS011;7827;53.594;9.938;2023-07-20T10:47:08;0.50;;;0.50;;
15451;SDS011;7827;53.594;9.938;2023-07-20T10:52:37;0.40;;;0.40;;
15451;SDS011;7827;53.594;9.938;2023-07-20T10:55:10;0.40;;;0.40;;
15451;SDS011;7827;53.594;9.938;2023-07-20T10:57:42;0.40;;;0.40;;
15451;SDS011;7827;53.594;9.938;2023-07-20T11:00:12;0.50;;;0.50;;
15451;SDS011;7827;53.594;9.938;2023-07-20T11:02:45;0.40;;;0.40;;
15451;SDS011;7827;53.594;9.938;2023-07-20T11:05:34;0.40;;;0.40;;
15451;SDS011;7827;53.594;9.938;2023-07-20T11:08:10;0.40;;;0.40;;
15451;SDS011;7827;53.594;9.938;2023-07-20T11:10:40;0.40;;;0.40;;
15451;SDS011;7827;53.594;9.938;2023-07-20T11:13:18;0.40;;;0.40;;
15451;SDS011;7827;53.594;9.938;2023-07-20T11:16:03;0.40;;;0.40;;
15451;SDS011;7827;53.594;9.938;2023-07-20T11:18:33;0.50;;;0.50;;
15451;SDS011;7827;53.594;9.938;2023-07-20T11:21:07;0.47;;;0.47;;
15451;SDS011;7827;53.594;9.938;2023-07-20T11:23:40;0.50;;;0.50;;
15451;SDS011;7827;53.594;9.938;2023-07-20T11:26:08;0.47;;;0.47;;
15451;SDS011;7827;53.594;9.938;2023-07-20T11:28:38;0.50;;;0.50;;
15451;SDS011;7827;53.594;9.938;2023-07-20T11:31:07;0.40;;;0.40;;
15451;SDS011;7827;53.594;9.938;2023-07-20T11:33:35;0.50;;;0.50;;
15451;SDS011;7827;53.594;9.938;2023-07-20T11:36:05;0.50;;;0.50;;
15451;SDS011;7827;53.594;9.938;2023-07-20T11:38:40;0.50;;;0.50;;
15451;SDS011;7827;53.594;9.938;2023-07-20T11:41:10;0.50;;;0.50;;
15451;SDS011;7827;53.594;9.938;2023-07-20T11:43:40;0.45;;;0.45;;
15451;SDS011;7827;53.594;9.938;2023-07-20T11:46:09;0.50;;;0.50;;
15451;SDS011;7827;53.594;9.938;2023-07-20T11:48:38;0.50;;;0.50;;
15451;SDS011;7827;53.594;9.938;2023-07-20T11:51:12;0.50;;;0.50;;
15451;SDS011;7827;53.594;9.938;2023-07-20T11:53:44;0.40;;;0.40;;
15451;SDS011;7827;53.594;9.938;2023-07-20T11:56:14;0.50;;;0.50;;
15451;SDS011;7827;53.594;9.938;2023-07-20T11:58:43;0.50;;;0.50;;
15451;SDS011;7827;53.594;9.938;2023-07-20T12:01:12;0.50;;;0.50;;
15451;SDS011;7827;53.594;9.938;2023-07-20T12:03:41;0.47;;;0.47;;
15451;SDS011;7827;53.594;9.938;2023-07-20T12:06:10;0.40;;;0.40;;
15451;SDS011;7827;53.594;9.938;2023-07-20T12:08:41;0.47;;;0.47;;
15451;SDS011;7827;53.594;9.938;2023-07-20T12:11:11;0.50;;;0.50;;
15451;SDS011;7827;53.594;9.938;2023-07-20T12:13:42;0.43;;;0.43;;
15451;SDS011;7827;53.594;9.938;2023-07-20T12:16:12;0.40;;;0.40;;
15451;SDS011;7827;53.594;9.938;2023-07-20T12:18:43;0.50;;;0.50;;
15451;SDS011;7827;53.594;9.938;2023-07-20T12:21:12;0.50;;;0.50;;
15451;SDS011;7827;53.594;9.938;2023-07-20T12:23:41;0.50;;;0.50;;
15451;SDS011;7827;53.594;9.938;2023-07-20T12:26:11;0.40;;;0.40;;
15451;SDS011;7827;53.594;9.938;2023-07-20T12:28:43;0.50;;;0.50;;
15451;SDS011;7827;53.594;9.938;2023-07-20T12:31:11;0.50;;;0.50;;
15451;SDS011;7827;53.594;9.938;2023-07-20T12:33:40;0.40;;;0.40;;
15451;SDS011;7827;53.594;9.938;2023-07-20T12:36:09;0.40;;;0.40;;
15451;SDS011;7827;53.594;9.938;2023-07-20T12:38:38;0.30;;;0.30;;
15451;SDS011;7827;53.594;9.938;2023-07-20T12:41:09;0.50;;;0.50;;
15451;SDS011;7827;53.594;9.938;2023-07-20T12:43:40;0.50;;;0.50;;
15451;SDS011;7827;53.594;9.938;2023-07-20T12:46:10;0.50;;;0.50;;
15451;SDS011;7827;53.594;9.938;2023-07-20T12:48:40;0.50;;;0.50;;
15451;SDS011;7827;53.594;9.938;2023-07-20T12:51:13;0.50;;;0.50;;
15451;SDS011;7827;53.594;9.938;2023-07-20T12:53:42;0.50;;;0.50;;
15451;SDS011;7827;53.594;9.938;2023-07-20T12:56:11;0.40;;;0.40;;
15451;SDS011;7827;53.594;9.938;2023-07-20T12:58:42;0.40;;;0.40;;
15451;SDS011;7827;53.594;9.938;2023-07-20T13:01:11;0.50;;;0.50;;
15451;SDS011;7827;53.594;9.938;2023-07-20T13:03:39;0.40;;;0.40;;
15451;SDS011;7827;53.594;9.938;2023-07-20T13:06:11;0.40;;;0.40;;
15451;SDS011;7827;53.594;9.938;2023-07-20T13:08:42;0.40;;;0.40;;
15451;SDS011;7827;53.594;9.938;2023-07-20T13:11:12;0.40;;;0.40;;
15451;SDS011;7827;53.594;9.938;2023-07-20T13:13:40;0.40;;;0.40;;
15451;SDS011;7827;53.594;9.938;2023-07-20T13:16:08;0.40;;;0.40;;
15451;SDS011;7827;53.594;9.938;2023-07-20T13:18:37;0.47;;;0.47;;
15451;SDS011;7827;53.594;9.938;2023-07-20T13:21:05;0.47;;;0.47;;
15451;SDS011;7827;53.594;9.938;2023-07-20T13:23:39;0.50;;;0.50;;
15451;SDS011;7827;53.594;9.938;2023-07-20T13:26:07;0.50;;;0.50;;
15451;SDS011;7827;53.594;9.938;2023-07-20T13:28:37;0.40;;;0.40;;
15451;SDS011;7827;53.594;9.938;2023-07-20T13:31:05;0.47;;;0.47;;
15451;SDS011;7827;53.594;9.938;2023-07-20T13:33:37;0.47;;;0.47;;
15451;SDS011;7827;53.594;9.938;2023-07-20T13:36:06;0.50;;;0.50;;
15451;SDS011;7827;53.594;9.938;2023-07-20T13:38:35;0.50;;;0.50;;
15451;SDS011;7827;53.594;9.938;2023-07-20T13:41:03;0.50;;;0.50;;
15451;SDS011;7827;53.594;9.938;2023-07-20T13:43:32;0.40;;;0.40;;
15451;SDS011;7827;53.594;9.938;2023-07-20T13:46:02;0.40;;;0.40;;
15451;SDS011;7827;53.594;9.938;2023-07-20T13:48:30;0.40;;;0.40;;
15451;SDS011;7827;53.594;9.938;2023-07-20T13:51:02;0.50;;;0.50;;
15451;SDS011;7827;53.594;9.938;2023-07-20T13:53:31;0.40;;;0.40;;
15451;SDS011;7827;53.594;9.938;2023-07-20T13:56:02;0.40;;;0.40;;
15451;SDS011;7827;53.594;9.938;2023-07-20T13:58:34;0.40;;;0.40;;
15451;SDS011;7827;53.594;9.938;2023-07-20T14:01:07;0.40;;;0.40;;
15451;SDS011;7827;53.594;9.938;2023-07-20T14:03:36;0.40;;;0.40;;
15451;SDS011;7827;53.594;9.938;2023-07-20T14:06:05;0.40;;;0.40;;
15451;SDS011;7827;53.594;9.938;2023-07-20T14:08:36;0.40;;;0.40;;
15451;SDS011;7827;53.594;9.938;2023-07-20T14:11:04;0.30;;;0.30;;
15451;SDS011;7827;53.594;9.938;2023-07-20T14:13:36;0.40;;;0.40;;
15451;SDS011;7827;53.594;9.938;2023-07-20T14:16:14;0.40;;;0.40;;
15451;SDS011;7827;53.594;9.938;2023-07-20T14:18:42;0.40;;;0.40;;
15451;SDS011;7827;53.594;9.938;2023-07-20T14:21:15;0.30;;;0.30;;
15451;SDS011;7827;53.594;9.938;2023-07-20T14:23:45;0.40;;;0.40;;
15451;SDS011;7827;53.594;9.938;2023-07-20T14:26:14;0.40;;;0.40;;
15451;SDS011;7827;53.594;9.938;2023-07-20T14:28:43;0.40;;;0.40;;
15451;SDS011;7827;53.594;9.938;2023-07-20T14:31:12;0.35;;;0.35;;
15451;SDS011;7827;53.594;9.938;2023-07-20T14:33:42;0.40;;;0.40;;
15451;SDS011;7827;53.594;9.938;2023-07-20T14:36:11;0.40;;;0.40;;
15451;SDS011;7827;53.594;9.938;2023-07-20T14:38:40;0.40;;;0.40;;
15451;SDS011;7827;53.594;9.938;2023-07-20T14:41:09;0.40;;;0.40;;
15451;SDS011;7827;53.594;9.938;2023-07-20T14:43:38;0.40;;;0.40;;
15451;SDS011;7827;53.594;9.938;2023-07-20T14:46:07;0.40;;;0.40;;
15451;SDS011;7827;53.594;9.938;2023-07-20T14:48:36;0.40;;;0.40;;
15451;SDS011;7827;53.594;9.938;2023-07-20T14:51:05;0.40;;;0.40;;
15451;SDS011;7827;53.594;9.938;2023-07-20T14:53:33;0.40;;;0.40;;
15451;SDS011;7827;53.594;9.938;2023-07-20T14:56:02;0.40;;;0.40;;
15451;SDS011;7827;53.594;9.938;2023-07-20T14:58:31;0.40;;;0.40;;
15451;SDS011;7827;53.594;9.938;2023-07-20T15:01:01;0.40;;;0.40;;
15451;SDS011;7827;53.594;9.938;2023-07-20T15:03:31;0.40;;;0.40;;
15451;SDS011;7827;53.594;9.938;2023-07-20T15:06:01;0.40;;;0.40;;
15451;SDS011;7827;53.594;9.938;2023-07-20T15:08:30;0.40;;;0.40;;
15451;SDS011;7827;53.594;9.938;2023-07-20T15:10:59;0.45;;;0.45;;
15451;SDS011;7827;53.594;9.938;2023-07-20T15:13:29;0.40;;;0.40;;
15451;SDS011;7827;53.594;9.938;2023-07-20T15:15:57;0.40;;;0.40;;
15451;SDS011;7827;53.594;9.938;2023-07-20T15:18:25;0.40;;;0.40;;
15451;SDS011;7827;53.594;9.938;2023-07-20T15:21:14;0.40;;;0.40;;
15451;SDS011;7827;53.594;9.938;2023-07-20T15:23:43;0.50;;;0.50;;
15451;SDS011;7827;53.594;9.938;2023-07-20T15:26:12;0.50;;;0.50;;